KRME/RME METAR and TAF weather

Enter ICAO airport designator
Station Type Date Time Source
KRME METAR 2021/07/29 02:53 UTC NOAA

KRME 290253Z AUTO 00000KT 10SM CLR 18/13 A3004 RMK AO2 SLP169 T01780128 50007


Station Type Date Time Source
KRME Decoded METAR 2021/07/29 02:53 UTC NOAA

GRIFFISS AIRFIELD, NY, United States (KRME) 43-14N 075-24W
Jul 28, 2021 - 10:53 PM EDT / 2021.07.29 0253 UTC
Wind: Calm:0
Visibility: 10 mile(s):0
Sky conditions: clear
Temperature: 64.0 F (17.8 C)
Dew Point: 55.0 F (12.8 C)
Relative Humidity: 72%
Pressure (altimeter): 30.04 in. Hg (1017 hPa)
Pressure tendency: 0.02 inches (0.7 hPa) higher than three hours ago
ob: KRME 290253Z AUTO 00000KT 10SM CLR 18/13 A3004 RMK AO2 SLP169 T01780128 50007
cycle: 3

Station Type Date Time Source
KRME TAF 2021/07/28 18:36 UTC NOAA

TAF KRME 281734Z 2818/2918 32006KT P6SM SCT035 SCT060
FM290900 VRB03KT 5SM BR BKN120
FM291600 08004KT P6SM -SHRA SCT040 BKN060

Example: see airport list